Time;durP1;ratioP1;P1;durP2;ratioP2;P2;SDS_P1;SDS_P2;PMS_P1;PMS_P2;Temp;Humidity;BMP_temperature;BMP_pressure;BME280_temperature;BME280_humidity;BME280_pressure;Samples;Min_cycle;Max_cycle;Signal;HPM_P1;HPM_P2
2022/03/07 00:01:25;;;;;;;18.05;8.40;;;;;;;-2.55;84.96;102783.81;5083666;28;20111;-85
2022/03/07 00:03:55;;;;;;;17.42;8.45;;;;;;;-2.56;85.16;102787.13;5105364;28;20047;-85
2022/03/07 00:06:21;;;;;;;16.88;8.27;;;;;;;-2.56;85.50;102782.06;5081380;28;20058;-85
2022/03/07 00:08:46;;;;;;;16.40;8.75;;;;;;;-2.61;85.60;102782.56;5089798;28;20024;-85
2022/03/07 00:11:20;;;;;;;15.18;7.85;;;;;;;-2.59;85.56;102781.00;5089560;28;20032;-85
2022/03/07 00:13:46;;;;;;;;;;;;;;;-2.60;83.40;102780.13;5092172;28;20103;-86
2022/03/07 00:16:12;;;;;;;15.68;7.30;;;;;;;-2.63;85.10;102785.00;5089268;28;20065;-85
2022/03/07 00:18:38;;;;;;;15.95;7.82;;;;;;;-2.67;85.20;102784.72;5086457;28;20546;-85
2022/03/07 00:21:08;;;;;;;17.85;7.85;;;;;;;-2.73;85.57;102775.09;5089520;28;20032;-85
2022/03/07 00:23:34;;;;;;;16.73;8.38;;;;;;;-2.77;84.44;102780.75;5079774;28;20023;-85
2022/03/07 00:25:59;;;;;;;15.68;8.20;;;;;;;-2.80;85.51;102790.72;5095852;28;20024;-85
2022/03/07 00:28:24;;;;;;;17.27;7.97;;;;;;;-2.83;86.05;102787.97;5088939;28;20024;-85
2022/03/07 00:30:50;;;;;;;16.90;7.88;;;;;;;-2.86;86.02;102786.13;5089551;28;20235;-85
2022/03/07 00:33:18;;;;;;;18.70;8.50;;;;;;;-2.92;85.78;102789.94;5067002;28;20028;-85
2022/03/07 00:35:44;;;;;;;15.70;8.48;;;;;;;-2.91;86.67;102795.13;5078415;28;20069;-84
2022/03/07 00:38:09;;;;;;;18.75;8.65;;;;;;;-2.91;86.50;102791.69;5090965;28;20432;-84
2022/03/07 00:40:35;;;;;;;16.92;8.63;;;;;;;-2.90;86.68;102790.94;5109996;28;20019;-85
2022/03/07 00:43:00;;;;;;;17.98;8.73;;;;;;;-2.96;86.15;102793.09;5095266;28;20027;-85
2022/03/07 00:45:25;;;;;;;16.17;8.18;;;;;;;-2.99;85.97;102793.75;5095371;28;20039;-85
2022/03/07 00:47:51;;;;;;;18.20;8.63;;;;;;;-3.02;85.85;102795.25;5088784;28;20063;-85
2022/03/07 00:50:16;;;;;;;17.55;8.80;;;;;;;-3.04;85.65;102796.78;5109374;28;20016;-85
2022/03/07 00:52:41;;;;;;;17.00;8.27;;;;;;;-3.06;86.09;102795.81;5102590;28;20358;-85
2022/03/07 00:55:08;;;;;;;17.90;8.57;;;;;;;-3.07;86.89;102796.63;5108319;28;20023;-85
2022/03/07 00:57:34;;;;;;;17.88;8.60;;;;;;;-3.09;86.61;102796.53;5104582;28;20020;-84
2022/03/07 00:59:59;;;;;;;17.08;8.80;;;;;;;-3.11;86.95;102803.16;5092898;28;20027;-85
2022/03/07 01:02:25;;;;;;;18.33;9.38;;;;;;;-3.09;87.23;102798.19;5091807;28;20103;-85
2022/03/07 01:04:50;;;;;;;19.25;8.73;;;;;;;-3.09;87.61;102798.19;5111140;28;20122;-85
2022/03/07 01:07:16;;;;;;;17.75;9.00;;;;;;;-3.12;87.25;102801.38;5103199;28;20024;-85
2022/03/07 01:09:42;;;;;;;16.75;8.43;;;;;;;-3.17;86.08;102799.34;5112441;28;20027;-84
2022/03/07 01:12:07;;;;;;;16.60;8.63;;;;;;;-3.22;86.20;102794.88;5131980;28;20369;-84
2022/03/07 01:14:33;;;;;;;16.83;7.95;;;;;;;-3.23;85.74;102798.19;5111525;28;20036;-85
2022/03/07 01:16:58;;;;;;;13.90;8.15;;;;;;;-3.25;85.46;102798.84;5096071;28;20443;-85
2022/03/07 01:19:23;;;;;;;15.20;8.02;;;;;;;-3.26;86.59;102797.97;5074179;28;20031;-85
2022/03/07 01:21:49;;;;;;;16.15;8.18;;;;;;;-3.29;85.38;102799.47;5093139;28;20016;-85
2022/03/07 01:24:14;;;;;;;16.63;8.25;;;;;;;-3.33;85.20;102793.28;5093502;28;20438;-84
2022/03/07 01:26:39;;;;;;;16.38;8.10;;;;;;;-3.32;86.73;102795.06;5092770;28;20031;-85
2022/03/07 01:29:05;;;;;;;17.40;8.77;;;;;;;-3.37;86.62;102788.81;5091996;28;20084;-85
2022/03/07 01:31:31;;;;;;;16.15;8.23;;;;;;;-3.35;87.04;102794.88;5074605;28;20028;-84
2022/03/07 01:33:56;;;;;;;18.02;8.68;;;;;;;-3.37;87.26;102796.44;5091304;28;20032;-84
2022/03/07 01:36:22;;;;;;;16.52;8.43;;;;;;;-3.41;87.23;102791.06;5092564;28;20043;-84
2022/03/07 01:38:48;;;;;;;18.08;9.02;;;;;;;-3.39;87.67;102797.97;5092638;28;20022;-83
2022/03/07 01:41:13;;;;;;;16.85;8.50;;;;;;;-3.40;88.23;102790.28;5072446;28;20031;-83
2022/03/07 01:43:39;;;;;;;19.42;9.18;;;;;;;-3.42;87.75;102781.72;5094272;28;20012;-83
2022/03/07 01:46:04;;;;;;;18.88;8.68;;;;;;;-3.44;87.58;102784.16;5093331;28;20062;-83
2022/03/07 01:48:29;;;;;;;19.10;9.50;;;;;;;-3.45;87.52;102792.53;5092039;28;20023;-83
2022/03/07 01:50:55;;;;;;;18.70;8.60;;;;;;;-3.48;87.92;102789.78;5108321;28;20106;-83
2022/03/07 01:53:21;;;;;;;19.02;8.80;;;;;;;-3.49;88.11;102788.06;5090416;28;20272;-83
2022/03/07 01:55:49;;;;;;;19.40;9.02;;;;;;;-3.50;88.66;102783.75;5092851;28;20063;-83
2022/03/07 01:58:15;;;;;;;19.30;9.07;;;;;;;-3.49;89.02;102790.59;5110243;28;20028;-83
2022/03/07 02:00:40;;;;;;;18.45;9.63;;;;;;;-3.44;89.72;102794.28;5091903;28;20576;-83
2022/03/07 02:03:06;;;;;;;16.75;9.02;;;;;;;-3.39;89.31;102795.44;5084571;28;20111;-84
2022/03/07 02:05:32;;;;;;;18.67;9.10;;;;;;;-3.36;89.61;102787.16;5105800;28;20075;-83
2022/03/07 02:07:58;;;;;;;20.23;9.35;;;;;;;-3.33;90.33;102788.22;5078446;28;20055;-83
2022/03/07 02:10:27;;;;;;;22.25;9.70;;;;;;;-3.28;90.85;102791.06;5090429;28;20476;-84
2022/03/07 02:12:53;;;;;;;20.90;10.05;;;;;;;-3.22;90.76;102789.81;5096187;28;20028;-84
2022/03/07 02:15:18;;;;;;;21.95;9.90;;;;;;;-3.21;90.82;102768.72;5085914;28;20033;-84
2022/03/07 02:17:47;;;;;;;21.35;9.73;;;;;;;-3.13;90.30;102773.38;5096848;28;20024;-84
2022/03/07 02:20:13;;;;;;;21.90;10.15;;;;;;;-3.11;90.35;102776.91;5100067;28;20446;-84
2022/03/07 02:22:40;;;;;;;22.00;10.50;;;;;;;-3.05;90.17;102782.34;5095619;28;20027;-85
2022/03/07 02:25:05;;;;;;;21.45;9.45;;;;;;;-3.05;90.27;102764.59;5112371;28;20023;-84
2022/03/07 02:27:32;;;;;;;21.67;10.35;;;;;;;-2.98;90.66;102771.81;5097089;28;20021;-84
2022/03/07 02:29:59;;;;;;;21.33;9.88;;;;;;;-2.99;90.17;102768.41;5094173;28;20089;-84
2022/03/07 02:32:26;;;;;;;19.88;9.85;;;;;;;-2.95;90.19;102770.34;5094154;28;20114;-84
2022/03/07 02:34:52;;;;;;;21.48;9.75;;;;;;;-2.97;89.35;102771.03;5099574;28;20458;-84
2022/03/07 02:37:17;;;;;;;21.42;10.20;;;;;;;-3.01;90.03;102764.91;5094856;28;20541;-84
2022/03/07 02:39:42;;;;;;;20.95;10.02;;;;;;;-2.97;89.63;102774.44;5107421;28;20106;-84
2022/03/07 02:42:08;;;;;;;19.15;9.57;;;;;;;-2.97;89.57;102771.03;5091086;28;20024;-84
2022/03/07 02:44:33;;;;;;;23.23;10.45;;;;;;;-2.97;90.13;102782.06;5096993;28;20491;-84
2022/03/07 02:46:58;;;;;;;20.90;9.68;;;;;;;-2.95;90.05;102774.56;5090988;28;20089;-84
2022/03/07 02:49:24;;;;;;;21.40;9.75;;;;;;;-2.95;90.09;102772.91;5097983;28;20487;-84
2022/03/07 02:51:49;;;;;;;20.90;9.60;;;;;;;-2.93;90.11;102775.50;5090714;28;20036;-84
2022/03/07 02:54:14;;;;;;;18.92;9.75;;;;;;;-2.93;90.39;102770.44;5090167;28;20405;-84
2022/03/07 02:56:40;;;;;;;19.38;9.90;;;;;;;-2.91;89.96;102768.88;5090619;28;20024;-84
2022/03/07 02:59:05;;;;;;;21.45;10.38;;;;;;;-2.92;89.69;102765.44;5090951;28;20103;-84
2022/03/07 03:01:31;;;;;;;21.77;10.18;;;;;;;-2.91;89.96;102767.22;5091980;28;20022;-84
2022/03/07 03:03:56;;;;;;;20.73;9.25;;;;;;;-2.91;89.64;102767.22;5095668;28;20287;-84
2022/03/07 03:06:21;;;;;;;18.27;9.63;;;;;;;-2.91;89.79;102767.22;5092324;28;20176;-84
2022/03/07 03:08:46;;;;;;;20.58;10.18;;;;;;;-2.90;90.00;102760.47;5082231;28;20032;-85
2022/03/07 03:11:12;;;;;;;19.85;9.80;;;;;;;-2.90;89.71;102766.44;5090234;28;20028;-84
2022/03/07 03:13:38;;;;;;;18.25;9.73;;;;;;;-2.92;90.07;102762.03;5090540;28;20085;-84
2022/03/07 03:16:04;;;;;;;18.65;9.05;;;;;;;-2.90;89.92;102771.50;5091187;28;20024;-84
2022/03/07 03:18:30;;;;;;;23.65;10.30;;;;;;;-2.90;89.61;102768.09;5093241;28;20058;-84
2022/03/07 03:20:55;;;;;;;22.00;9.73;;;;;;;-2.92;89.05;102769.66;5088774;28;20107;-84
2022/03/07 03:23:22;;;;;;;18.95;9.80;;;;;;;-2.96;89.63;102766.06;5092411;28;20024;-84
2022/03/07 03:25:47;;;;;;;21.80;10.30;;;;;;;-2.93;89.70;102767.88;5099214;28;20050;-84
2022/03/07 03:28:13;;;;;;;20.23;9.82;;;;;;;-2.94;89.75;102769.59;5072214;28;20028;-84
2022/03/07 03:30:38;;;;;;;21.88;10.27;;;;;;;-2.97;89.59;102764.31;5089418;28;20410;-84
2022/03/07 03:33:04;;;;;;;22.58;10.13;;;;;;;-2.96;90.11;102768.59;5098587;28;20028;-85
2022/03/07 03:35:29;;;;;;;20.60;10.57;;;;;;;-2.98;89.59;102770.16;5090058;28;20028;-84
2022/03/07 03:37:55;;;;;;;21.25;9.48;;;;;;;-3.00;89.57;102768.31;5111002;28;20023;-83
2022/03/07 03:40:20;;;;;;;19.42;9.60;;;;;;;-3.06;89.13;102773.88;5115144;28;20024;-83
2022/03/07 03:42:46;;;;;;;19.13;9.60;;;;;;;-3.13;89.50;102774.25;5109668;28;20020;-84
2022/03/07 03:45:12;;;;;;;21.33;9.77;;;;;;;-3.18;89.50;102773.09;5088903;28;20068;-84
2022/03/07 03:47:39;;;;;;;20.48;9.70;;;;;;;-3.22;89.70;102777.13;5097511;28;20472;-84
2022/03/07 03:50:07;;;;;;;20.65;9.55;;;;;;;-3.30;89.64;102777.41;5105166;28;20119;-84
2022/03/07 03:52:33;;;;;;;19.65;9.70;;;;;;;-3.33;89.93;102783.16;5090195;28;20491;-84
2022/03/07 03:54:58;;;;;;;21.75;9.80;;;;;;;-3.37;90.04;102778.69;5071865;28;20099;-84
2022/03/07 03:57:24;;;;;;;18.77;9.60;;;;;;;-3.37;89.99;102778.69;5089646;28;20389;-84
2022/03/07 03:59:50;;;;;;;20.58;9.55;;;;;;;-3.39;90.20;102779.34;5106951;28;20051;-84
2022/03/07 04:02:15;;;;;;;22.40;10.05;;;;;;;-3.45;89.88;102774.78;5081463;28;20048;-84
2022/03/07 04:04:41;;;;;;;19.70;9.57;;;;;;;-3.43;90.58;102778.28;5090239;28;20093;-84
2022/03/07 04:07:06;;;;;;;22.27;9.88;;;;;;;-3.44;90.24;102775.66;5098550;28;20680;-84
2022/03/07 04:09:32;;;;;;;21.85;9.95;;;;;;;-3.46;90.49;102778.09;5110537;28;20442;-84
2022/03/07 04:11:57;;;;;;;24.50;10.48;;;;;;;-3.45;90.75;102778.97;5083892;28;20027;-84
2022/03/07 04:14:22;;;;;;;21.98;10.00;;;;;;;-3.49;90.53;102764.34;5092220;28;20160;-84
2022/03/07 04:16:48;;;;;;;20.77;9.52;;;;;;;-3.51;90.83;102768.44;5093505;28;20431;-84
2022/03/07 04:19:15;;;;;;;24.70;10.93;;;;;;;-3.52;90.49;102774.28;5089561;28;20107;-85
2022/03/07 04:21:41;;;;;;;21.45;9.90;;;;;;;-3.58;90.50;102775.66;5089963;28;20031;-84
2022/03/07 04:24:08;;;;;;;21.33;9.90;;;;;;;-3.63;90.70;102774.50;5089078;28;20028;-84
2022/03/07 04:26:34;;;;;;;20.80;9.93;;;;;;;-3.67;90.71;102777.59;5089151;28;20496;-84
2022/03/07 04:29:05;;;;;;;22.65;10.15;;;;;;;-3.70;90.97;102769.81;5086853;28;20024;-84
2022/03/07 04:31:31;;;;;;;20.80;10.10;;;;;;;-3.72;90.87;102773.00;5093014;28;20027;-84
2022/03/07 04:33:56;;;;;;;21.60;9.93;;;;;;;-3.70;91.02;102779.94;5087102;28;20029;-84
2022/03/07 04:36:21;;;;;;;23.15;9.88;;;;;;;-3.75;90.69;102782.94;5092637;28;20092;-84
2022/03/07 04:38:47;;;;;;;24.38;10.40;;;;;;;-3.77;90.77;102774.38;5082585;28;20035;-84
2022/03/07 04:41:13;;;;;;;22.15;10.15;;;;;;;-3.73;91.26;102781.38;5079265;28;20028;-84
2022/03/07 04:43:38;;;;;;;23.83;10.38;;;;;;;-3.68;91.42;102777.47;5093731;28;20311;-84
2022/03/07 04:46:04;;;;;;;21.52;10.38;;;;;;;-3.70;91.30;102776.53;5096448;28;20111;-84
2022/03/07 04:48:30;;;;;;;25.25;11.38;;;;;;;-3.64;92.19;102775.25;5112939;28;20024;-84
2022/03/07 04:50:55;;;;;;;24.38;11.02;;;;;;;-3.61;92.33;102775.44;5090771;28;20055;-84
2022/03/07 04:53:20;;;;;;;23.88;10.77;;;;;;;-3.58;92.26;102777.31;5081688;28;20107;-84
2022/03/07 04:55:46;;;;;;;23.88;10.57;;;;;;;-3.58;92.02;102773.13;5108188;28;20139;-84
2022/03/07 04:58:11;;;;;;;24.08;10.23;;;;;;;-3.59;91.86;102781.50;5108815;28;20404;-84
2022/03/07 05:00:36;;;;;;;22.35;10.32;;;;;;;-3.59;91.61;102773.91;5095274;28;20053;-84
2022/03/07 05:03:01;;;;;;;25.33;10.57;;;;;;;-3.52;92.10;102782.78;5075480;28;20112;-84
2022/03/07 05:05:27;;;;;;;25.73;11.40;;;;;;;-3.51;92.07;102776.94;5092874;28;20503;-84
2022/03/07 05:07:53;;;;;;;24.63;10.73;;;;;;;-3.53;91.84;102780.13;5091805;28;20106;-84
2022/03/07 05:10:20;;;;;;;23.27;10.23;;;;;;;-3.58;91.66;102767.19;5092612;28;20473;-84
2022/03/07 05:12:47;;;;;;;21.98;10.60;;;;;;;-3.56;91.92;102765.63;5093003;28;20063;-84
2022/03/07 05:15:12;;;;;;;24.33;11.18;;;;;;;-3.57;91.88;102774.00;5091939;28;20051;-84
2022/03/07 05:17:46;;;;;;;26.02;11.05;;;;;;;-3.60;91.89;102774.66;5094018;28;20388;-84
2022/03/07 05:20:12;;;;;;;25.87;11.10;;;;;;;-3.60;91.76;102768.72;5102763;28;20020;-84
2022/03/07 05:22:42;;;;;;;25.95;10.82;;;;;;;-3.64;91.78;102772.72;5093065;28;20035;-84
2022/03/07 05:25:08;;;;;;;23.77;11.43;;;;;;;-3.63;92.04;102773.59;5092575;28;20035;-84
2022/03/07 05:27:34;;;;;;;25.52;10.88;;;;;;;-3.63;92.28;102777.03;5106014;28;20032;-83
2022/03/07 05:29:59;;;;;;;22.80;10.32;;;;;;;-3.64;92.10;102782.00;5074027;28;20020;-84
2022/03/07 05:32:24;;;;;;;21.65;10.05;;;;;;;-3.71;92.06;102774.75;5092720;28;20032;-84
2022/03/07 05:34:50;;;;;;;21.27;10.00;;;;;;;-3.76;91.69;102776.13;5092433;28;20157;-84
2022/03/07 05:37:15;;;;;;;22.83;10.60;;;;;;;-3.74;91.84;102775.44;5095013;28;20036;-83
2022/03/07 05:39:41;;;;;;;27.88;10.63;;;;;;;-3.70;92.10;102771.47;5089330;28;20107;-84
2022/03/07 05:42:06;;;;;;;21.85;10.55;;;;;;;-3.73;92.16;102771.25;5090958;28;20108;-83
2022/03/07 05:44:31;;;;;;;24.58;10.40;;;;;;;-3.76;92.06;102766.88;5092927;28;20051;-84
2022/03/07 05:46:57;;;;;;;24.67;11.02;;;;;;;-3.79;91.89;102770.84;5093832;28;20031;-84
2022/03/07 05:49:22;;;;;;;24.02;11.20;;;;;;;-3.82;92.13;102771.50;5095309;28;20061;-83
2022/03/07 05:51:48;;;;;;;23.98;11.05;;;;;;;-3.84;92.15;102775.63;5092918;28;20019;-83
2022/03/07 05:54:13;;;;;;;26.17;11.75;;;;;;;-3.79;92.58;102780.97;5112956;28;20115;-83
2022/03/07 05:56:38;;;;;;;29.20;12.40;;;;;;;-3.80;92.58;102776.69;5098077;28;20035;-83
2022/03/07 05:59:04;;;;;;;35.05;12.10;;;;;;;-3.81;92.33;102772.41;5093937;28;20035;-83
2022/03/07 06:01:29;;;;;;;29.50;12.18;;;;;;;-3.83;92.40;102779.03;5098678;28;20430;-83
2022/03/07 06:03:54;;;;;;;27.02;11.70;;;;;;;-3.85;92.27;102790.72;5092029;28;20494;-83
2022/03/07 06:06:20;;;;;;;25.90;10.93;;;;;;;-3.92;92.30;102788.56;5099693;28;20052;-83
2022/03/07 06:08:45;;;;;;;26.10;11.55;;;;;;;-3.95;92.23;102799.34;5091654;28;20160;-83
2022/03/07 06:11:10;;;;;;;24.42;11.43;;;;;;;-3.96;92.34;102806.88;5111971;28;20027;-83
2022/03/07 06:13:36;;;;;;;26.73;11.43;;;;;;;-3.92;92.90;102808.81;5112563;28;20012;-82
2022/03/07 06:16:01;;;;;;;25.45;11.18;;;;;;;-3.89;92.83;102816.63;5087851;28;20130;-83
2022/03/07 06:18:26;;;;;;;26.55;11.95;;;;;;;-3.81;93.39;102820.53;5091125;28;20056;-83
2022/03/07 06:20:52;;;;;;;29.00;12.50;;;;;;;-3.79;93.51;102816.44;5091463;28;20028;-83
2022/03/07 06:23:17;;;;;;;25.63;11.32;;;;;;;-3.79;93.23;102817.31;5097815;28;20175;-83
2022/03/07 06:25:42;;;;;;;31.23;12.93;;;;;;;-3.76;93.24;102819.19;5091577;28;20028;-83
2022/03/07 06:28:09;;;;;;;29.65;11.98;;;;;;;-3.71;93.20;102822.91;5084024;28;20029;-83
2022/03/07 06:30:34;;;;;;;27.27;11.90;;;;;;;-3.66;93.26;102817.34;5091680;28;20484;-83
2022/03/07 06:32:59;;;;;;;29.13;12.57;;;;;;;-3.65;93.54;102816.59;5073600;28;20031;-83
2022/03/07 06:35:25;;;;;;;26.52;12.40;;;;;;;-3.59;93.56;102819.50;5111953;28;20019;-83
2022/03/07 06:37:52;;;;;;;26.60;12.38;;;;;;;-3.54;93.16;102814.72;5099779;28;20119;-84
2022/03/07 06:40:18;;;;;;;30.10;13.02;;;;;;;-3.51;93.27;102820.00;5106868;28;20031;-84
2022/03/07 06:42:46;;;;;;;33.92;14.10;;;;;;;-3.43;93.14;102823.03;5098131;28;20501;-84
2022/03/07 06:45:12;;;;;;;30.63;13.80;;;;;;;-3.36;93.40;102825.19;5091482;28;20020;-84
2022/03/07 06:47:39;;;;;;;33.70;13.95;;;;;;;-3.29;93.17;102823.16;5090335;28;20028;-84
2022/03/07 06:50:05;;;;;;;27.70;12.60;;;;;;;-3.21;93.37;102827.03;5092847;28;20059;-84
2022/03/07 06:52:30;;;;;;;27.55;13.95;;;;;;;-3.12;93.28;102826.75;5089630;28;20389;-83
2022/03/07 06:54:55;;;;;;;31.17;13.63;;;;;;;-3.01;93.13;102827.44;5091416;28;20038;-84
2022/03/07 06:57:21;;;;;;;30.63;13.75;;;;;;;-2.89;93.21;102825.66;5095604;28;20048;-84
2022/03/07 06:59:48;;;;;;;32.22;13.45;;;;;;;-2.48;93.79;102821.47;5073118;28;20024;-84
2022/03/07 07:02:13;;;;;;;33.00;14.20;;;;;;;-1.64;92.03;102823.94;5090648;28;20106;-84
2022/03/07 07:04:39;;;;;;;28.73;13.70;;;;;;;-0.61;90.01;102816.94;5080818;28;20115;-84
2022/03/07 07:07:04;;;;;;;33.13;14.45;;;;;;;0.30;86.74;102813.16;5109399;28;20140;-84
2022/03/07 07:09:29;;;;;;;33.42;13.80;;;;;;;1.27;83.22;102805.06;5091029;28;20024;-84
2022/03/07 07:11:54;;;;;;;26.95;13.13;;;;;;;1.78;78.42;102803.94;5090623;28;20450;-84
2022/03/07 07:14:20;;;;;;;24.80;12.30;;;;;;;1.78;75.87;102810.75;5082357;28;20023;-84
2022/03/07 07:16:45;;;;;;;26.80;12.43;;;;;;;1.30;76.22;102804.34;5090756;28;20034;-84
2022/03/07 07:19:10;;;;;;;27.25;11.95;;;;;;;0.74;77.58;102807.69;5089977;28;20027;-84
2022/03/07 07:21:36;;;;;;;24.08;12.48;;;;;;;0.35;78.71;102809.16;5090646;28;20020;-84
2022/03/07 07:24:01;;;;;;;28.00;13.32;;;;;;;0.11;79.73;102811.38;5103357;28;20404;-84
2022/03/07 07:26:26;;;;;;;26.08;12.68;;;;;;;-0.08;80.01;102807.03;5100635;28;20488;-84
2022/03/07 07:28:52;;;;;;;28.60;13.65;;;;;;;-0.28;80.78;102817.88;5072256;28;20107;-84
2022/03/07 07:31:17;;;;;;;27.27;13.15;;;;;;;-0.37;81.96;102817.38;5096478;28;20106;-84
2022/03/07 07:33:43;;;;;;;25.63;12.60;;;;;;;-0.28;80.95;102811.91;5089128;28;20031;-84
2022/03/07 07:36:08;;;;;;;29.42;13.32;;;;;;;-0.35;81.21;102820.03;5093795;28;20031;-85
2022/03/07 07:38:33;;;;;;;26.85;12.60;;;;;;;-0.34;80.75;102820.06;5103371;28;20035;-84
2022/03/07 07:40:59;;;;;;;28.25;13.40;;;;;;;-0.45;81.12;102822.06;5092119;28;20283;-84
2022/03/07 07:43:24;;;;;;;28.60;13.30;;;;;;;-0.58;81.54;102824.75;5092671;28;20486;-84
2022/03/07 07:45:49;;;;;;;27.45;13.10;;;;;;;-0.62;81.93;102827.06;5107153;28;20039;-84
2022/03/07 07:48:15;;;;;;;27.25;13.05;;;;;;;-0.56;82.10;102828.28;5103026;28;20077;-84
2022/03/07 07:50:40;;;;;;;29.17;13.65;;;;;;;-0.42;81.83;102831.56;5090600;28;20278;-85
2022/03/07 07:53:06;;;;;;;30.48;14.27;;;;;;;-0.26;82.30;102836.63;5088830;28;20033;-85
2022/03/07 07:55:32;;;;;;;30.63;12.43;;;;;;;-0.04;80.84;102825.88;5098827;28;20404;-86
2022/03/07 07:57:57;;;;;;;26.95;13.35;;;;;;;0.11;80.32;102830.91;5090326;28;20020;-86
2022/03/07 08:00:22;;;;;;;27.33;13.55;;;;;;;0.26;80.26;102832.56;5089523;28;20032;-85
2022/03/07 08:02:49;;;;;;;26.65;13.15;;;;;;;0.51;78.88;102826.09;5076907;28;20065;-86
2022/03/07 08:05:15;;;;;;;27.50;12.80;;;;;;;0.76;78.54;102829.91;5094516;28;20467;-85
2022/03/07 08:07:42;;;;;;;25.88;12.57;;;;;;;1.03;78.67;102829.47;5071925;28;20040;-85
2022/03/07 08:10:09;;;;;;;26.27;12.60;;;;;;;1.49;75.69;102830.81;5090124;28;20405;-86
2022/03/07 08:12:35;;;;;;;21.35;11.23;;;;;;;1.79;74.67;102825.28;5089915;28;20028;-86
2022/03/07 08:15:01;;;;;;;20.98;11.20;;;;;;;1.92;73.80;102825.88;5089997;28;20027;-86
2022/03/07 08:17:26;;;;;;;25.77;11.85;;;;;;;2.13;74.04;102823.38;5074469;28;20089;-85
2022/03/07 08:19:52;;;;;;;22.92;11.63;;;;;;;2.85;74.57;102829.78;5100359;28;20039;-85
2022/03/07 08:22:17;;;;;;;22.92;11.68;;;;;;;4.21;70.36;102817.72;5090952;28;20023;-85
2022/03/07 08:24:43;;;;;;;19.27;10.63;;;;;;;5.63;64.38;102820.44;5099661;28;20031;-85
2022/03/07 08:27:08;;;;;;;22.98;11.65;;;;;;;7.25;63.11;102813.38;5110085;28;20023;-85
2022/03/07 08:29:33;;;;;;;19.75;11.40;;;;;;;9.04;60.38;102808.91;5072094;28;20069;-85
2022/03/07 08:31:58;;;;;;;19.95;10.75;;;;;;;10.02;51.53;102801.47;5088357;28;20028;-85
2022/03/07 08:34:24;;;;;;;16.55;10.10;;;;;;;10.58;51.97;102808.91;5079710;28;20032;-85
2022/03/07 08:36:49;;;;;;;17.10;9.52;;;;;;;10.74;47.45;102804.69;5108147;28;20023;-85
2022/03/07 08:39:14;;;;;;;15.43;9.43;;;;;;;10.86;44.43;102807.38;5110393;28;20133;-85
2022/03/07 08:41:40;;;;;;;17.67;9.95;;;;;;;10.72;47.27;102801.22;5109632;28;20019;-85
2022/03/07 08:44:05;;;;;;;16.33;10.05;;;;;;;10.28;46.45;102814.72;5109985;28;20111;-84
2022/03/07 08:46:30;;;;;;;16.35;9.50;;;;;;;9.89;48.57;102809.97;5116477;28;20093;-83
2022/03/07 08:48:56;;;;;;;17.50;9.73;;;;;;;9.42;48.11;102801.63;5103083;28;20086;-85
2022/03/07 08:51:21;;;;;;;14.90;10.20;;;;;;;8.75;50.28;102815.34;5106324;28;20114;-85
2022/03/07 08:53:46;;;;;;;16.77;9.07;;;;;;;8.06;50.51;102815.88;5072745;28;20400;-85
2022/03/07 08:56:13;;;;;;;15.98;9.60;;;;;;;7.51;50.33;102820.81;5100183;28;20598;-85
2022/03/07 08:58:38;;;;;;;15.95;9.50;;;;;;;7.02;50.22;102816.34;5109762;28;20028;-85
2022/03/07 09:01:04;;;;;;;15.20;9.23;;;;;;;6.65;52.70;102821.47;5107484;28;20027;-85
2022/03/07 09:03:29;;;;;;;13.55;8.43;;;;;;;6.20;51.27;102816.91;5089166;28;20146;-85
2022/03/07 09:05:55;;;;;;;14.57;8.43;;;;;;;6.01;54.52;102818.94;5089057;28;20131;-85
2022/03/07 09:08:20;;;;;;;12.68;8.85;;;;;;;5.47;52.58;102809.72;5092520;28;20401;-85
2022/03/07 09:10:45;;;;;;;12.52;8.30;;;;;;;5.08;55.25;102818.81;5088982;28;20099;-85
2022/03/07 09:13:11;;;;;;;13.40;8.65;;;;;;;4.87;56.38;102815.59;5070372;28;20074;-85
2022/03/07 09:15:36;;;;;;;12.60;8.25;;;;;;;4.84;56.84;102812.94;5089019;28;20103;-85
2022/03/07 09:18:02;;;;;;;14.57;8.68;;;;;;;4.85;56.63;102817.22;5083913;28;20055;-85
2022/03/07 09:20:27;;;;;;;12.13;8.13;;;;;;;4.73;54.53;102821.16;5091653;28;20406;-85
2022/03/07 09:22:53;;;;;;;12.65;7.82;;;;;;;4.54;55.62;102820.53;5088293;28;20061;-84
2022/03/07 09:25:19;;;;;;;12.40;8.02;;;;;;;4.48;56.75;102812.63;5098528;28;20037;-85
2022/03/07 09:27:45;;;;;;;14.98;7.75;;;;;;;4.50;57.41;102811.88;5079421;28;20037;-85
2022/03/07 09:30:13;;;;;;;14.38;8.05;;;;;;;4.53;56.83;102811.94;5083158;28;20030;-85
2022/03/07 09:32:39;;;;;;;13.57;8.07;;;;;;;4.51;56.97;102813.59;5092257;28;20035;-84
2022/03/07 09:35:05;;;;;;;15.40;8.27;;;;;;;4.47;57.44;102814.31;5073601;28;20051;-84
2022/03/07 09:37:30;;;;;;;12.45;7.78;;;;;;;4.48;57.84;102816.06;5096471;28;20020;-85
2022/03/07 09:39:56;;;;;;;16.33;8.13;;;;;;;4.45;57.27;102808.25;5091455;28;20039;-85
2022/03/07 09:42:21;;;;;;;12.57;8.00;;;;;;;4.45;58.04;102800.53;5081164;28;20516;-85
2022/03/07 09:44:47;;;;;;;11.50;7.68;;;;;;;4.47;57.05;102800.59;5092570;28;20050;-85
2022/03/07 09:47:13;;;;;;;12.70;7.93;;;;;;;4.46;57.21;102799.72;5091855;28;20032;-85
2022/03/07 09:49:38;;;;;;;12.00;7.45;;;;;;;4.45;56.39;102802.25;5092451;28;20091;-86
2022/03/07 09:52:04;;;;;;;16.15;7.78;;;;;;;4.46;57.18;102794.59;5096246;28;20032;-86
2022/03/07 09:54:29;;;;;;;9.25;6.50;;;;;;;4.47;55.60;102793.78;5073855;28;20070;-86
2022/03/07 09:56:56;;;;;;;10.82;6.60;;;;;;;4.48;56.05;102797.22;5091204;28;20420;-86
2022/03/07 09:59:21;;;;;;;11.45;6.43;;;;;;;4.36;53.93;102787.44;5092210;28;20480;-86
2022/03/07 10:02:02;;;;;;;10.35;6.60;;;;;;;4.33;56.36;102788.19;5091407;28;20046;-86
2022/03/07 10:04:30;;;;;;;10.98;6.30;;;;;;;4.31;54.01;102781.25;5092220;28;20051;-86
2022/03/07 10:06:55;;;;;;;11.57;6.18;;;;;;;4.29;54.95;102791.50;5091356;28;20080;-86
2022/03/07 10:09:25;;;;;;;8.32;5.80;;;;;;;4.28;54.36;102784.59;5091895;28;20455;-86
2022/03/07 10:11:55;;;;;;;10.32;5.93;;;;;;;4.28;54.77;102788.88;5095051;28;20024;-86
2022/03/07 10:14:44;;;;;;;11.25;6.45;;;;;;;4.24;55.30;102784.44;5112799;28;20192;-86
2022/03/07 10:17:24;;;;;;;14.60;6.32;;;;;;;4.22;55.68;102783.53;5107347;28;20027;-86
2022/03/07 10:19:51;;;;;;;9.32;5.90;;;;;;;4.20;54.63;102785.16;5079131;28;20024;-85
2022/03/07 10:22:26;;;;;;;10.80;6.10;;;;;;;4.22;55.37;102784.41;5091534;28;20020;-85
2022/03/07 10:25:07;;;;;;;11.52;6.70;;;;;;;4.34;56.75;102784.81;5091610;28;20397;-84
2022/03/07 10:27:37;;;;;;;11.00;7.00;;;;;;;4.44;55.44;102772.25;5091048;28;20508;-86
2022/03/07 10:30:08;;;;;;;12.80;6.75;;;;;;;4.52;55.33;102773.38;5074872;28;20032;-85
2022/03/07 10:32:33;;;;;;;11.57;6.18;;;;;;;4.60;54.98;102769.34;5103951;28;20542;-86
2022/03/07 10:34:58;;;;;;;9.40;6.40;;;;;;;4.59;53.98;102758.22;5101217;28;20027;-85
2022/03/07 10:37:54;;;;;;;9.10;5.60;;;;;;;4.64;55.28;102754.09;5101753;28;20020;-85
2022/03/07 10:40:21;;;;;;;7.82;5.57;;;;;;;4.75;56.08;102759.56;5078675;28;20043;-85
2022/03/07 10:42:48;;;;;;;13.43;6.03;;;;;;;4.82;53.78;102747.78;5103595;28;20109;-85
2022/03/07 10:45:14;;;;;;;9.52;5.78;;;;;;;4.93;55.09;102756.69;5100756;28;20023;-85
2022/03/07 10:47:39;;;;;;;8.30;5.20;;;;;;;4.98;52.63;102752.56;5090663;28;20042;-85
2022/03/07 10:50:05;;;;;;;9.73;5.63;;;;;;;4.98;53.70;102748.28;5091293;28;20161;-85
2022/03/07 10:52:41;;;;;;;12.00;5.70;;;;;;;5.00;54.66;102738.03;5090571;28;20024;-85
2022/03/07 10:55:09;;;;;;;10.07;5.47;;;;;;;5.03;53.18;102739.03;5082900;28;20052;-85
2022/03/07 10:57:38;;;;;;;10.55;5.78;;;;;;;5.04;53.55;102725.34;5090734;28;20052;-85
2022/03/07 11:00:13;;;;;;;8.02;5.32;;;;;;;5.06;54.05;102726.25;5090529;28;20028;-84
2022/03/07 11:02:44;;;;;;;8.27;5.22;;;;;;;5.15;53.42;102723.94;5075547;28;20036;-84
2022/03/07 11:05:11;;;;;;;8.90;5.60;;;;;;;5.21;53.17;102722.38;5087163;28;20040;-84
2022/03/07 11:07:39;;;;;;;10.90;5.82;;;;;;;5.22;53.15;102716.41;5078165;28;20470;-83
2022/03/07 11:10:11;;;;;;;9.60;5.68;;;;;;;5.14;51.83;102716.19;5062627;28;20028;-84
2022/03/07 11:12:37;;;;;;;10.70;6.10;;;;;;;5.13;53.58;102707.59;5071184;28;20024;-84